Time;durP1;ratioP1;P1;durP2;ratioP2;P2;SDS_P1;SDS_P2;PMS_P1;PMS_P2;Temp;Humidity;BMP_temperature;BMP_pressure;BME280_temperature;BME280_humidity;BME280_pressure;Samples;Min_cycle;Max_cycle;Signal;HPM_P1;HPM_P2
2022/12/03 00:00:49;;;;;;;31.00;11.70;;;4.30;99.90;;;;;;5036258;28;20041;-67
2022/12/03 00:03:15;;;;;;;30.55;11.38;;;4.30;99.90;;;;;;5036395;28;20028;-67
2022/12/03 00:05:41;;;;;;;28.42;10.65;;;4.30;99.90;;;;;;5036226;28;20025;-67
2022/12/03 00:08:06;;;;;;;31.73;12.10;;;4.30;99.90;;;;;;5036284;28;20537;-68
2022/12/03 00:10:32;;;;;;;26.70;9.30;;;4.30;99.90;;;;;;5036058;28;20025;-68
2022/12/03 00:12:57;;;;;;;25.55;9.90;;;4.20;99.90;;;;;;5036422;28;20370;-68
2022/12/03 00:15:23;;;;;;;29.42;11.50;;;4.20;99.90;;;;;;5035929;28;20021;-67
2022/12/03 00:17:48;;;;;;;27.90;11.35;;;4.10;99.90;;;;;;5036297;28;20025;-67
2022/12/03 00:20:19;;;;;;;29.75;10.63;;;4.10;99.90;;;;;;5036012;28;20034;-67
2022/12/03 00:22:44;;;;;;;28.17;11.05;;;4.10;99.90;;;;;;5035939;28;20025;-67
2022/12/03 00:25:10;;;;;;;28.05;11.45;;;4.00;99.90;;;;;;5034681;28;20041;-67
2022/12/03 00:27:36;;;;;;;29.33;11.73;;;4.00;99.90;;;;;;5035667;28;20053;-67
2022/12/03 00:30:01;;;;;;;28.15;11.93;;;3.90;99.90;;;;;;5035992;28;20104;-67
2022/12/03 00:32:27;;;;;;;28.83;10.65;;;3.90;99.90;;;;;;5033880;28;20036;-68
2022/12/03 00:34:52;;;;;;;32.25;12.18;;;3.90;99.90;;;;;;5035728;28;20033;-67
2022/12/03 00:37:18;;;;;;;30.75;12.15;;;3.90;99.90;;;;;;5035612;28;20041;-67
2022/12/03 00:39:43;;;;;;;29.13;11.00;;;3.90;99.90;;;;;;5035442;28;20028;-67
2022/12/03 00:42:09;;;;;;;33.35;12.32;;;3.90;99.90;;;;;;5035407;28;20104;-67
2022/12/03 00:44:34;;;;;;;30.33;10.85;;;3.80;99.90;;;;;;5035564;28;20053;-67
2022/12/03 00:47:00;;;;;;;34.50;12.70;;;3.80;99.90;;;;;;5035465;28;20032;-68
2022/12/03 00:49:25;;;;;;;30.55;11.82;;;3.70;99.90;;;;;;5035336;28;20037;-68
2022/12/03 00:51:51;;;;;;;32.92;11.82;;;3.70;99.90;;;;;;5035142;28;20116;-67
2022/12/03 00:54:17;;;;;;;28.02;11.32;;;3.80;99.90;;;;;;5035302;28;20026;-67
2022/12/03 00:56:42;;;;;;;29.33;11.45;;;3.80;99.90;;;;;;5035269;28;20021;-68
2022/12/03 00:59:08;;;;;;;34.03;13.05;;;3.80;99.90;;;;;;5034212;28;20029;-68
2022/12/03 01:01:33;;;;;;;34.85;12.20;;;3.90;99.90;;;;;;5034896;28;20029;-67
2022/12/03 01:03:59;;;;;;;36.25;13.55;;;3.90;99.90;;;;;;5033583;28;20026;-67
2022/12/03 01:06:24;;;;;;;34.45;13.68;;;4.00;99.90;;;;;;5034844;28;20057;-68
2022/12/03 01:08:50;;;;;;;32.38;12.88;;;4.00;99.90;;;;;;5033484;28;20107;-67
2022/12/03 01:13:59;;;;;;;31.20;11.35;;;4.10;99.90;;;;;;5034851;28;20104;-68
2022/12/03 01:16:25;;;;;;;30.02;10.73;;;4.20;99.90;;;;;;5034782;28;20101;-68
2022/12/03 01:18:51;;;;;;;32.05;12.18;;;4.20;99.90;;;;;;5034737;28;20036;-68
2022/12/03 01:21:17;;;;;;;30.40;11.38;;;4.20;99.90;;;;;;5034686;28;20181;-69
2022/12/03 01:23:43;;;;;;;26.92;10.80;;;4.30;99.90;;;;;;5033343;28;20100;-68
2022/12/03 01:26:09;;;;;;;31.52;10.68;;;4.30;99.90;;;;;;5034930;28;20096;-67
2022/12/03 01:28:34;;;;;;;22.77;9.93;;;4.40;99.90;;;;;;5034258;28;20033;-68
2022/12/03 01:33:44;;;;;;;30.58;10.57;;;4.50;99.90;;;;;;5034220;28;20033;-68
2022/12/03 01:36:09;;;;;;;26.17;10.27;;;4.50;99.90;;;;;;5034831;28;20033;-67
2022/12/03 01:38:35;;;;;;;25.08;10.25;;;4.60;99.90;;;;;;5034595;28;20029;-68
2022/12/03 01:41:01;;;;;;;27.08;11.52;;;4.60;99.90;;;;;;5034311;28;20021;-68
2022/12/03 01:43:27;;;;;;;24.42;9.32;;;4.60;99.90;;;;;;5049481;28;20071;-68
2022/12/03 01:45:52;;;;;;;29.52;11.07;;;4.70;99.90;;;;;;5034327;28;20046;-68
2022/12/03 01:48:18;;;;;;;25.48;10.07;;;4.70;99.90;;;;;;5034200;28;20044;-68
2022/12/03 01:50:44;;;;;;;28.00;11.05;;;4.70;99.90;;;;;;5033832;28;20029;-68
2022/12/03 01:53:14;;;;;;;24.42;9.15;;;4.70;99.90;;;;;;5032677;28;20366;-68
2022/12/03 01:55:42;;;;;;;28.00;10.93;;;4.70;99.90;;;;;;5034195;28;20031;-68
2022/12/03 01:58:12;;;;;;;27.02;9.75;;;4.80;99.90;;;;;;5033814;28;20478;-68
2022/12/03 02:00:39;;;;;;;27.50;10.60;;;4.80;99.90;;;;;;5032699;28;20029;-68
2022/12/03 02:03:14;;;;;;;27.52;10.32;;;4.80;99.90;;;;;;5033488;28;20444;-68
2022/12/03 02:05:39;;;;;;;28.83;10.38;;;4.80;99.90;;;;;;5034324;28;20025;-68
2022/12/03 02:08:33;;;;;;;28.08;10.50;;;4.80;99.90;;;;;;5033616;28;20039;-68
2022/12/03 02:11:27;;;;;;;30.88;11.75;;;4.90;99.90;;;;;;5033317;28;20100;-68
2022/12/03 02:14:09;;;;;;;27.90;10.48;;;4.90;99.90;;;;;;5033246;28;20045;-68
2022/12/03 02:16:37;;;;;;;30.35;11.38;;;4.90;99.90;;;;;;5033620;28;20036;-68
2022/12/03 02:19:06;;;;;;;31.08;11.57;;;4.90;99.90;;;;;;5033180;28;20051;-68
2022/12/03 02:21:56;;;;;;;29.63;11.27;;;4.90;99.90;;;;;;5033665;28;20025;-68
2022/12/03 02:24:43;;;;;;;29.88;9.68;;;4.90;99.90;;;;;;5032039;28;20045;-68
2022/12/03 02:27:09;;;;;;;28.45;11.68;;;4.90;99.90;;;;;;5033227;28;20052;-68
2022/12/03 02:29:35;;;;;;;29.30;11.30;;;4.90;99.90;;;;;;5033364;28;20107;-68
2022/12/03 02:32:00;;;;;;;28.98;11.18;;;4.90;99.90;;;;;;5033422;28;20025;-68
2022/12/03 02:34:40;;;;;;;34.42;12.65;;;4.90;99.90;;;;;;5033643;28;20427;-68
2022/12/03 02:37:09;;;;;;;27.95;11.90;;;5.00;99.90;;;;;;5033344;28;20527;-68
2022/12/03 02:39:36;;;;;;;29.42;11.30;;;5.00;99.90;;;;;;5033058;28;20095;-69
2022/12/03 02:44:47;;;;;;;28.63;10.55;;;5.00;99.90;;;;;;5032938;28;20527;-68
2022/12/03 02:47:13;;;;;;;31.27;11.38;;;5.00;99.90;;;;;;5033120;28;20029;-68
2022/12/03 02:49:39;;;;;;;33.45;12.57;;;5.10;99.90;;;;;;5032431;28;20450;-68
2022/12/03 02:52:20;;;;;;;30.17;12.02;;;5.10;99.90;;;;;;4999328;28;20061;-68
2022/12/03 02:54:46;;;;;;;29.20;10.93;;;5.10;99.90;;;;;;5033059;28;20441;-66
2022/12/03 02:57:12;;;;;;;28.58;11.27;;;5.10;99.90;;;;;;5032663;28;20026;-66
2022/12/03 02:59:38;;;;;;;32.28;12.18;;;5.10;99.90;;;;;;5032848;28;20433;-66
2022/12/03 03:02:04;;;;;;;31.17;12.50;;;5.10;99.90;;;;;;5033022;28;20040;-66
2022/12/03 03:04:29;;;;;;;31.20;11.90;;;5.10;99.90;;;;;;5031502;28;20021;-66
2022/12/03 03:06:55;;;;;;;34.75;13.90;;;5.10;99.90;;;;;;5032908;28;20021;-66
2022/12/03 03:09:21;;;;;;;31.63;11.02;;;5.20;99.90;;;;;;5032627;28;20037;-66
2022/12/03 03:11:46;;;;;;;35.65;13.27;;;5.20;99.90;;;;;;5032834;28;20071;-66
2022/12/03 03:14:12;;;;;;;34.35;12.77;;;5.20;99.90;;;;;;5032833;28;20334;-66
2022/12/03 03:16:39;;;;;;;29.05;10.65;;;5.20;99.90;;;;;;5032865;28;20030;-67
2022/12/03 03:19:05;;;;;;;33.00;12.48;;;5.20;99.90;;;;;;5032871;28;20032;-66
2022/12/03 03:21:31;;;;;;;33.90;12.75;;;5.20;99.90;;;;;;5032202;28;20033;-66
2022/12/03 03:23:56;;;;;;;32.53;12.30;;;5.20;99.90;;;;;;5030586;28;20019;-66
2022/12/03 03:26:22;;;;;;;34.58;12.50;;;5.20;99.90;;;;;;5031237;28;20017;-66
2022/12/03 03:28:49;;;;;;;26.30;10.10;;;5.20;99.90;;;;;;5032165;28;20046;-67
2022/12/03 03:31:19;;;;;;;32.58;12.45;;;5.20;99.90;;;;;;5032805;28;20064;-66
2022/12/03 03:33:47;;;;;;;31.95;11.43;;;5.30;99.90;;;;;;5032535;28;20024;-67
2022/12/03 03:36:13;;;;;;;29.42;11.23;;;5.30;99.90;;;;;;5032557;28;20025;-66
2022/12/03 03:38:40;;;;;;;32.65;11.93;;;5.30;99.90;;;;;;5032738;28;20350;-67
2022/12/03 03:41:07;;;;;;;26.90;11.13;;;5.30;99.90;;;;;;5032587;28;20025;-66
2022/12/03 03:43:35;;;;;;;30.50;12.10;;;5.30;99.90;;;;;;5032454;28;20025;-67
2022/12/03 03:46:03;;;;;;;30.17;12.18;;;5.30;99.90;;;;;;5031932;28;20127;-66
2022/12/03 03:48:29;;;;;;;29.77;11.38;;;5.30;99.90;;;;;;5031744;28;20088;-67
2022/12/03 03:50:55;;;;;;;26.40;10.18;;;5.30;99.90;;;;;;5032347;28;20409;-66
2022/12/03 03:53:22;;;;;;;29.48;11.48;;;5.30;99.90;;;;;;5031912;28;20029;-66
2022/12/03 03:55:48;;;;;;;27.40;11.20;;;5.40;99.90;;;;;;5032251;28;20048;-67
2022/12/03 03:58:14;;;;;;;27.33;11.23;;;5.40;99.90;;;;;;5032069;28;20013;-67
2022/12/03 04:00:44;;;;;;;27.00;10.10;;;5.40;99.90;;;;;;5031986;28;20374;-66
2022/12/03 04:03:11;;;;;;;25.52;10.45;;;5.40;99.90;;;;;;5030712;28;20057;-66
2022/12/03 04:05:37;;;;;;;27.48;11.10;;;5.40;99.90;;;;;;5030888;28;20069;-67
2022/12/03 04:08:02;;;;;;;30.98;11.23;;;5.40;99.90;;;;;;5032389;28;20038;-67
2022/12/03 04:13:12;;;;;;;25.92;11.05;;;5.40;99.90;;;;;;5031937;28;20056;-67
2022/12/03 04:15:38;;;;;;;24.95;10.25;;;5.40;99.90;;;;;;5032070;28;20057;-67
2022/12/03 04:20:48;;;;;;;25.85;10.02;;;5.30;99.90;;;;;;5031834;28;20032;-67
2022/12/03 04:23:13;;;;;;;25.85;9.77;;;5.30;99.90;;;;;;5032064;28;20097;-66
2022/12/03 04:36:36;;;;;;;29.60;12.23;;;5.20;99.90;;;;;;5035248;28;20044;-67
2022/12/03 04:39:02;;;;;;;27.48;11.68;;;5.20;99.90;;;;;;5034121;28;20026;-67
2022/12/03 04:41:28;;;;;;;27.63;11.00;;;5.20;99.90;;;;;;5034750;28;20061;-67
2022/12/03 04:46:37;;;;;;;29.27;11.55;;;5.10;99.90;;;;;;5035257;28;20373;-69
2022/12/03 04:49:03;;;;;;;29.55;11.85;;;5.10;99.90;;;;;;5035150;28;20041;-68
2022/12/03 04:51:28;;;;;;;29.77;11.13;;;5.10;99.90;;;;;;5034920;28;20029;-70
2022/12/03 04:53:54;;;;;;;28.77;11.90;;;5.10;99.90;;;;;;5035157;28;20033;-69
2022/12/03 04:56:19;;;;;;;28.02;13.30;;;5.10;99.90;;;;;;5034868;28;20480;-67
2022/12/03 04:58:45;;;;;;;25.50;10.32;;;5.10;99.90;;;;;;5033708;28;20847;-69
2022/12/03 05:01:10;;;;;;;33.08;12.77;;;5.20;99.90;;;;;;5035127;28;20021;-69
2022/12/03 05:03:36;;;;;;;33.97;13.07;;;5.20;99.90;;;;;;5033828;28;20032;-66
2022/12/03 05:06:01;;;;;;;31.45;13.32;;;5.20;99.90;;;;;;5035129;28;20446;-69
2022/12/03 05:08:27;;;;;;;31.10;12.73;;;5.20;99.90;;;;;;5034966;28;20045;-66
2022/12/03 05:10:52;;;;;;;28.80;12.05;;;5.20;99.90;;;;;;5035196;28;20022;-69
2022/12/03 05:13:18;;;;;;;31.35;13.15;;;5.20;99.90;;;;;;5035109;28;20021;-69
2022/12/03 05:15:43;;;;;;;29.25;12.43;;;5.20;99.90;;;;;;5035165;28;20091;-67
2022/12/03 05:18:09;;;;;;;32.85;13.52;;;5.20;99.90;;;;;;5034889;28;20030;-69
2022/12/03 05:20:40;;;;;;;31.85;12.50;;;5.20;99.90;;;;;;5034672;28;20025;-67
2022/12/03 05:23:07;;;;;;;28.23;11.35;;;5.20;99.90;;;;;;5035035;28;20018;-67
2022/12/03 05:25:32;;;;;;;32.15;14.27;;;5.20;99.90;;;;;;5034536;28;20026;-68
2022/12/03 05:27:58;;;;;;;33.80;13.55;;;5.20;99.90;;;;;;5034882;28;20030;-69
2022/12/03 05:30:23;;;;;;;29.05;13.02;;;5.20;99.90;;;;;;5034641;28;20022;-67
2022/12/03 05:32:49;;;;;;;31.48;12.70;;;5.20;99.90;;;;;;5034696;28;20052;-69
2022/12/03 05:35:15;;;;;;;32.03;12.80;;;5.20;99.90;;;;;;5034720;28;20087;-68
2022/12/03 05:37:40;;;;;;;31.67;13.32;;;5.10;99.90;;;;;;5034646;28;20022;-69
2022/12/03 05:40:06;;;;;;;30.20;13.40;;;5.20;99.90;;;;;;5034662;28;20033;-67
2022/12/03 05:45:17;;;;;;;31.38;12.88;;;5.20;99.90;;;;;;5033735;28;20095;-69
2022/12/03 05:47:43;;;;;;;30.40;12.55;;;5.10;99.90;;;;;;5034346;28;20170;-68
2022/12/03 05:50:08;;;;;;;28.13;11.90;;;5.10;99.90;;;;;;5034713;28;20467;-70
2022/12/03 05:52:34;;;;;;;29.33;13.38;;;5.10;99.90;;;;;;5034526;28;20029;-68
2022/12/03 05:54:59;;;;;;;31.48;12.52;;;5.10;99.90;;;;;;5034474;28;20025;-66
2022/12/03 05:57:25;;;;;;;32.67;13.77;;;5.10;99.90;;;;;;5034106;28;20026;-69
2022/12/03 05:59:50;;;;;;;33.65;14.13;;;5.10;99.90;;;;;;5033950;28;20087;-69
2022/12/03 06:02:16;;;;;;;29.15;11.73;;;5.10;99.90;;;;;;5034196;28;20022;-69
2022/12/03 06:04:41;;;;;;;29.30;12.00;;;5.10;99.90;;;;;;5033855;28;20021;-69
2022/12/03 06:07:07;;;;;;;28.42;11.65;;;5.10;99.90;;;;;;5033959;28;20037;-68
2022/12/03 06:09:32;;;;;;;32.53;12.60;;;5.10;99.90;;;;;;5033490;28;20087;-69
2022/12/03 06:11:58;;;;;;;32.22;13.45;;;5.10;99.90;;;;;;5033932;28;20029;-69
2022/12/03 06:14:24;;;;;;;33.30;13.63;;;5.10;99.90;;;;;;5033472;28;20079;-68
2022/12/03 06:16:49;;;;;;;30.95;13.55;;;5.10;99.90;;;;;;5033436;28;20029;-67
2022/12/03 06:19:15;;;;;;;32.15;13.48;;;5.20;99.90;;;;;;5033778;28;20029;-66
2022/12/03 06:21:40;;;;;;;30.88;13.38;;;5.20;99.90;;;;;;5033690;28;20029;-69
2022/12/03 06:24:06;;;;;;;33.97;14.70;;;5.10;99.90;;;;;;5034030;28;20346;-67
2022/12/03 06:26:31;;;;;;;29.60;11.95;;;5.10;99.90;;;;;;5033865;28;20025;-68
2022/12/03 06:28:57;;;;;;;29.70;12.82;;;5.10;99.90;;;;;;5033362;28;20381;-66
2022/12/03 06:31:22;;;;;;;31.17;12.65;;;5.10;99.90;;;;;;5033883;28;20029;-69
2022/12/03 06:33:48;;;;;;;29.13;12.65;;;5.10;99.90;;;;;;5033545;28;20029;-68
2022/12/03 06:36:13;;;;;;;28.48;11.88;;;5.10;99.90;;;;;;5033106;28;20472;-67
2022/12/03 06:38:39;;;;;;;29.83;12.43;;;5.10;99.90;;;;;;5033612;28;20040;-67
2022/12/03 06:41:04;;;;;;;30.05;13.00;;;5.10;99.90;;;;;;5032813;28;20017;-69
2022/12/03 06:43:30;;;;;;;29.55;13.15;;;5.00;99.90;;;;;;5033109;28;20017;-69
2022/12/03 06:45:55;;;;;;;30.27;12.75;;;5.10;99.90;;;;;;5033548;28;20100;-70
2022/12/03 06:48:21;;;;;;;29.40;13.18;;;5.00;99.90;;;;;;5033316;28;20033;-68
2022/12/03 06:50:47;;;;;;;30.58;12.50;;;5.10;99.90;;;;;;5033310;28;20021;-69
2022/12/03 06:53:12;;;;;;;28.98;12.82;;;5.10;99.90;;;;;;5033160;28;20018;-67
2022/12/03 06:55:38;;;;;;;29.50;13.52;;;5.10;99.90;;;;;;5032745;28;20408;-67
2022/12/03 06:58:04;;;;;;;23.92;11.57;;;5.00;99.90;;;;;;5033093;28;20112;-67
2022/12/03 07:00:29;;;;;;;33.08;14.20;;;5.00;99.90;;;;;;5033221;28;20092;-67
2022/12/03 07:02:55;;;;;;;31.00;12.63;;;5.00;99.90;;;;;;5033172;28;20052;-66
2022/12/03 07:05:20;;;;;;;28.63;12.23;;;5.00;99.90;;;;;;5032142;28;20100;-67
2022/12/03 07:07:50;;;;;;;28.33;12.15;;;5.00;99.90;;;;;;5032985;28;20097;-67
2022/12/03 07:10:17;;;;;;;38.15;12.65;;;5.00;99.90;;;;;;5031179;28;20078;-67
2022/12/03 07:12:42;;;;;;;30.10;11.85;;;5.00;99.90;;;;;;5026890;28;21000;-67
2022/12/03 07:15:08;;;;;;;24.13;9.68;;;5.00;99.90;;;;;;5031410;28;20029;-67
2022/12/03 07:17:34;;;;;;;30.63;12.95;;;5.00;99.90;;;;;;5032651;28;20571;-66
2022/12/03 07:19:59;;;;;;;30.52;11.27;;;5.00;99.90;;;;;;5033088;28;20048;-67
2022/12/03 07:22:25;;;;;;;32.80;13.60;;;4.90;99.90;;;;;;5031897;28;20037;-67
2022/12/03 07:24:50;;;;;;;30.17;12.55;;;5.00;99.90;;;;;;5032061;28;20022;-67
2022/12/03 07:27:16;;;;;;;29.98;12.48;;;4.90;99.90;;;;;;5032220;28;20029;-67
2022/12/03 07:29:41;;;;;;;28.13;12.52;;;4.90;99.90;;;;;;5032457;28;20037;-67
2022/12/03 07:32:07;;;;;;;29.48;12.88;;;4.90;99.90;;;;;;5031439;28;20089;-67
2022/12/03 07:34:32;;;;;;;31.50;14.68;;;4.90;99.90;;;;;;5032525;28;20021;-67
2022/12/03 07:36:58;;;;;;;31.83;13.10;;;4.90;99.90;;;;;;5032706;28;20420;-67
2022/12/03 07:39:23;;;;;;;32.15;14.45;;;4.90;99.90;;;;;;5031099;28;20023;-67
2022/12/03 07:41:49;;;;;;;27.52;11.82;;;4.90;99.90;;;;;;5034727;28;20489;-67
2022/12/03 07:44:15;;;;;;;28.95;13.05;;;5.00;99.90;;;;;;5031581;28;20049;-67
2022/12/03 07:46:41;;;;;;;33.25;15.50;;;4.90;99.90;;;;;;5045784;28;20080;-67
2022/12/03 07:49:07;;;;;;;33.80;14.93;;;4.90;99.90;;;;;;5052167;28;20449;-67
2022/12/03 07:51:32;;;;;;;31.88;12.98;;;4.90;99.90;;;;;;5051896;28;20075;-67
2022/12/03 07:53:58;;;;;;;36.53;13.88;;;4.90;99.90;;;;;;5052394;28;20104;-67
2022/12/03 07:56:23;;;;;;;33.97;13.85;;;4.90;99.90;;;;;;5051922;28;20033;-67
2022/12/03 07:58:49;;;;;;;31.52;15.50;;;4.90;99.90;;;;;;5052490;28;20021;-67
2022/12/03 08:01:14;;;;;;;32.25;15.00;;;4.90;99.90;;;;;;5041491;28;20076;-67
2022/12/03 08:03:41;;;;;;;31.98;13.95;;;4.90;99.90;;;;;;5031147;28;20445;-67
2022/12/03 08:06:08;;;;;;;28.27;13.13;;;4.90;99.90;;;;;;5032087;28;20010;-68
2022/12/03 08:08:33;;;;;;;33.63;13.82;;;4.90;99.90;;;;;;5032227;28;20045;-66
2022/12/03 08:11:00;;;;;;;31.70;12.88;;;4.80;99.90;;;;;;5036205;28;20409;-66
2022/12/03 08:13:26;;;;;;;30.95;13.20;;;4.80;99.90;;;;;;5035284;28;20017;-67
2022/12/03 08:15:54;;;;;;;36.58;15.35;;;4.90;99.90;;;;;;5035911;28;20393;-66
2022/12/03 08:18:20;;;;;;;31.23;14.45;;;4.90;99.90;;;;;;5034419;28;20025;-67
2022/12/03 08:20:48;;;;;;;30.10;13.85;;;4.90;99.90;;;;;;5035827;28;20430;-67
2022/12/03 08:23:15;;;;;;;28.08;13.35;;;4.90;99.90;;;;;;5035807;28;20018;-66
2022/12/03 08:25:42;;;;;;;32.92;13.75;;;4.90;99.90;;;;;;5034378;28;20048;-68
2022/12/03 08:28:10;;;;;;;33.05;14.90;;;4.90;99.90;;;;;;5035780;28;20068;-66
2022/12/03 08:30:36;;;;;;;30.63;13.80;;;4.80;99.90;;;;;;5035310;28;20056;-66
2022/12/03 08:33:12;;;;;;;32.88;14.02;;;4.90;99.90;;;;;;5035505;28;20026;-67
2022/12/03 08:35:43;;;;;;;33.08;14.90;;;4.90;99.90;;;;;;5034981;28;20104;-67
2022/12/03 08:38:11;;;;;;;33.08;14.27;;;4.90;99.90;;;;;;5035190;28;20028;-66
2022/12/03 08:40:42;;;;;;;34.72;15.95;;;4.90;99.90;;;;;;5035360;28;20057;-66
2022/12/03 08:43:27;;;;;;;37.38;14.93;;;4.90;99.90;;;;;;5034965;28;20426;-67
2022/12/03 08:45:54;;;;;;;32.05;13.63;;;4.90;99.90;;;;;;5032514;28;20053;-67
2022/12/03 08:48:33;;;;;;;36.17;16.10;;;4.90;99.90;;;;;;5035021;28;20108;-67
2022/12/03 08:51:22;;;;;;;38.92;15.93;;;4.90;99.90;;;;;;5035330;28;20492;-67
2022/12/03 08:53:49;;;;;;;35.67;13.75;;;4.90;99.90;;;;;;5035195;28;20250;-67
2022/12/03 08:56:24;;;;;;;34.83;15.50;;;5.00;99.90;;;;;;5035385;28;20060;-67
2022/12/03 08:58:57;;;;;;;44.47;15.60;;;4.90;99.90;;;;;;5033902;28;20021;-67
2022/12/03 09:01:32;;;;;;;35.00;15.05;;;5.00;99.90;;;;;;5033641;28;20631;-67
2022/12/03 09:04:45;;;;;;;35.75;16.73;;;4.90;99.90;;;;;;5035155;28;20431;-67
2022/12/03 09:07:10;;;;;;;34.13;14.68;;;5.00;99.90;;;;;;5032922;28;20041;-67
2022/12/03 09:09:36;;;;;;;35.33;15.45;;;5.00;99.90;;;;;;5034640;28;20033;-67
2022/12/03 09:12:02;;;;;;;38.50;16.42;;;5.00;99.90;;;;;;5034901;28;20106;-68
2022/12/03 09:14:28;;;;;;;37.55;15.82;;;5.00;99.90;;;;;;5034592;28;20041;-67
2022/12/03 09:16:54;;;;;;;35.97;15.68;;;5.00;99.90;;;;;;5033582;28;20017;-67
2022/12/03 09:19:24;;;;;;;35.22;15.38;;;5.00;99.90;;;;;;5034758;28;20028;-67
2022/12/03 09:21:51;;;;;;;38.35;16.95;;;5.10;99.90;;;;;;5033162;28;20025;-67
2022/12/03 09:24:16;;;;;;;37.33;17.05;;;5.00;99.90;;;;;;5034784;28;20045;-67
2022/12/03 09:26:42;;;;;;;38.80;16.70;;;5.00;99.90;;;;;;5034600;28;20521;-67
2022/12/03 09:29:07;;;;;;;37.97;15.88;;;5.00;99.90;;;;;;5034916;28;20496;-67
2022/12/03 09:31:33;;;;;;;38.17;15.00;;;5.00;99.90;;;;;;5034869;28;20512;-67
2022/12/03 09:34:00;;;;;;;40.72;16.20;;;5.00;99.90;;;;;;5033383;28;20108;-67
2022/12/03 09:36:26;;;;;;;40.65;17.40;;;5.00;99.90;;;;;;5034471;28;20052;-67
2022/12/03 09:38:52;;;;;;;36.33;17.48;;;5.00;99.90;;;;;;5034540;28;20097;-67
2022/12/03 09:41:17;;;;;;;40.33;18.02;;;5.10;99.90;;;;;;5034172;28;20029;-68
2022/12/03 09:43:43;;;;;;;35.78;16.02;;;5.10;99.90;;;;;;5034452;28;20071;-67
2022/12/03 09:46:09;;;;;;;39.15;17.42;;;5.10;99.90;;;;;;5034388;28;20288;-67
2022/12/03 09:48:35;;;;;;;38.75;16.42;;;5.20;99.90;;;;;;5033952;28;20111;-67
2022/12/03 09:51:01;;;;;;;39.10;17.10;;;5.20;99.90;;;;;;5033656;28;20018;-67
2022/12/03 09:53:27;;;;;;;38.35;17.58;;;5.10;99.90;;;;;;5033812;28;20017;-67
2022/12/03 09:55:56;;;;;;;39.08;16.92;;;5.20;99.90;;;;;;5034332;28;20045;-67
2022/12/03 09:58:22;;;;;;;36.63;17.40;;;5.20;99.90;;;;;;5034547;28;20025;-67
2022/12/03 10:00:51;;;;;;;41.25;17.83;;;5.20;99.90;;;;;;5033817;28;20444;-66
2022/12/03 10:03:19;;;;;;;37.80;16.73;;;5.10;99.90;;;;;;5034166;28;20065;-67
2022/12/03 10:05:46;;;;;;;42.47;17.52;;;5.10;99.90;;;;;;5033865;28;20022;-67
2022/12/03 10:08:17;;;;;;;38.83;15.65;;;5.10;99.90;;;;;;5031026;28;20072;-67
2022/12/03 10:10:43;;;;;;;38.17;16.87;;;5.10;99.90;;;;;;5033739;28;20017;-67
2022/12/03 10:13:25;;;;;;;38.53;16.88;;;5.10;99.90;;;;;;5033822;28;20290;-67
2022/12/03 10:15:54;;;;;;;40.22;16.90;;;5.10;99.90;;;;;;5033332;28;20028;-67
2022/12/03 10:18:25;;;;;;;35.10;13.88;;;5.10;99.90;;;;;;5032291;28;20372;-67
2022/12/03 10:20:52;;;;;;;37.80;16.17;;;5.10;99.90;;;;;;5034003;28;20029;-67
2022/12/03 10:23:29;;;;;;;40.25;15.63;;;5.10;99.90;;;;;;5032490;28;20033;-67
2022/12/03 10:26:01;;;;;;;42.58;18.42;;;5.10;99.90;;;;;;5033499;28;20022;-67
2022/12/03 10:28:35;;;;;;;35.97;16.27;;;5.10;99.90;;;;;;5033426;28;20516;-68
2022/12/03 10:31:05;;;;;;;38.85;16.92;;;5.10;99.90;;;;;;5033788;28;20025;-67
2022/12/03 10:33:36;;;;;;;34.35;15.85;;;5.10;99.90;;;;;;5033170;28;20477;-67
2022/12/03 10:36:22;;;;;;;38.88;16.90;;;5.20;99.90;;;;;;5033403;28;20472;-67
2022/12/03 10:39:11;;;;;;;38.58;16.25;;;5.10;99.90;;;;;;5033137;28;20036;-67
2022/12/03 10:41:38;;;;;;;35.90;14.75;;;5.10;99.90;;;;;;5032714;28;20021;-67
2022/12/03 10:44:17;;;;;;;38.85;15.80;;;5.00;99.90;;;;;;5032774;28;20074;-67
2022/12/03 10:46:44;;;;;;;35.83;16.13;;;5.10;99.90;;;;;;5027169;28;20026;-67
2022/12/03 10:49:13;;;;;;;38.78;16.42;;;5.10;99.90;;;;;;5032700;28;20029;-67
2022/12/03 10:51:39;;;;;;;39.72;16.25;;;5.00;99.90;;;;;;5032092;28;20029;-67
2022/12/03 10:54:19;;;;;;;38.03;15.40;;;5.00;99.90;;;;;;5031815;28;20456;-67
2022/12/03 10:56:46;;;;;;;33.08;14.85;;;5.00;99.90;;;;;;5033153;28;20014;-67
2022/12/03 10:59:18;;;;;;;33.58;14.30;;;5.00;99.90;;;;;;5033177;28;20022;-67
2022/12/03 11:01:44;;;;;;;;;;;5.00;99.90;;;;;;5033449;28;20017;-68
2022/12/03 11:04:29;;;;;;;38.45;17.45;;;5.00;99.90;;;;;;5032180;28;20035;-67
2022/12/03 11:06:54;;;;;;;34.97;14.85;;;5.10;99.90;;;;;;5031170;28;20458;-68
2022/12/03 11:09:26;;;;;;;36.63;16.10;;;5.10;99.90;;;;;;5032595;28;20111;-67
2022/12/03 11:11:52;;;;;;;37.25;15.63;;;5.20;99.90;;;;;;5033289;28;20014;-67
2022/12/03 11:14:49;;;;;;;36.92;15.52;;;5.30;99.90;;;;;;5032589;28;20030;-67
2022/12/03 11:17:37;;;;;;;36.78;16.17;;;5.30;99.90;;;;;;5032843;28;20044;-67
2022/12/03 11:20:04;;;;;;;37.13;15.95;;;5.40;99.90;;;;;;5032608;28;20358;-67
2022/12/03 11:22:42;;;;;;;38.47;16.58;;;5.30;99.90;;;;;;5032669;28;20034;-67
2022/12/03 11:25:26;;;;;;;35.90;16.40;;;5.30;99.90;;;;;;5033023;28;20450;-67
2022/12/03 11:28:10;;;;;;;36.03;16.00;;;5.30;99.90;;;;;;5034051;28;20501;-67
2022/12/03 11:30:48;;;;;;;31.83;14.73;;;5.20;99.90;;;;;;5045382;28;20049;-67
2022/12/03 11:33:31;;;;;;;31.90;14.75;;;5.20;99.90;;;;;;5032947;28;20083;-67
2022/12/03 11:36:02;;;;;;;28.10;12.05;;;5.10;99.90;;;;;;5048926;28;20035;-67
2022/12/03 11:38:37;;;;;;;36.85;16.48;;;5.10;99.90;;;;;;5051313;28;20048;-67
2022/12/03 11:41:13;;;;;;;40.13;17.38;;;5.00;99.90;;;;;;5052408;28;20021;-67
2022/12/03 11:43:56;;;;;;;35.15;14.68;;;4.90;99.90;;;;;;5043342;28;20030;-67
2022/12/03 11:46:25;;;;;;;33.90;13.65;;;4.90;99.90;;;;;;5036775;28;20034;-67
2022/12/03 11:48:53;;;;;;;33.10;14.98;;;4.90;99.90;;;;;;5035013;28;20484;-67
2022/12/03 11:51:21;;;;;;;34.38;15.13;;;4.80;99.90;;;;;;5036357;28;20029;-67
2022/12/03 11:53:48;;;;;;;36.40;14.95;;;4.90;99.90;;;;;;5036698;28;20025;-67
2022/12/03 11:56:17;;;;;;;34.03;14.50;;;4.90;99.90;;;;;;5036508;28;20018;-68
2022/12/03 11:58:44;;;;;;;38.03;16.10;;;4.90;99.90;;;;;;5036239;28;20556;-67
2022/12/03 12:01:11;;;;;;;41.92;17.00;;;4.90;99.90;;;;;;5049186;28;20067;-67
2022/12/03 12:03:45;;;;;;;36.13;15.07;;;4.80;99.90;;;;;;5055662;28;20040;-67
2022/12/03 12:06:14;;;;;;;35.33;15.38;;;4.80;99.90;;;;;;5056397;28;20029;-67
2022/12/03 12:08:55;;;;;;;38.13;16.30;;;4.80;99.90;;;;;;5056382;28;20036;-67
2022/12/03 12:11:28;;;;;;;37.67;14.90;;;4.70;99.90;;;;;;5056274;28;20404;-67
2022/12/03 12:14:02;;;;;;;36.90;14.43;;;4.70;99.90;;;;;;5056082;28;20017;-67
2022/12/03 12:16:48;;;;;;;41.03;16.48;;;4.70;99.90;;;;;;5056802;28;20021;-67
2022/12/03 12:19:37;;;;;;;36.10;15.07;;;4.70;99.90;;;;;;5043524;28;20603;-66
2022/12/03 12:22:21;;;;;;;36.28;15.05;;;4.70;99.90;;;;;;5035735;28;20018;-67
2022/12/03 12:24:50;;;;;;;38.67;14.68;;;4.70;99.90;;;;;;5034314;28;20036;-67
2022/12/03 12:27:33;;;;;;;38.08;16.00;;;4.80;99.90;;;;;;5035669;28;20488;-67
2022/12/03 12:30:15;;;;;;;37.05;14.95;;;4.80;99.90;;;;;;5031633;28;20040;-67
2022/12/03 12:32:47;;;;;;;;;;;4.70;99.90;;;;;;5034132;28;20044;-67
2022/12/03 12:35:22;;;;;;;38.77;15.33;;;4.80;99.90;;;;;;5036045;28;20293;-67
2022/12/03 12:38:06;;;;;;;38.58;15.32;;;4.70;99.90;;;;;;5032490;28;20461;-67
2022/12/03 12:40:35;;;;;;;43.10;16.42;;;4.80;99.90;;;;;;5035217;28;20053;-67
2022/12/03 12:43:09;;;;;;;36.45;14.27;;;4.80;99.90;;;;;;5033606;28;20404;-67
2022/12/03 12:45:40;;;;;;;38.13;16.00;;;4.80;99.90;;;;;;5054379;28;20083;-67
2022/12/03 12:48:14;;;;;;;42.30;16.52;;;4.80;99.90;;;;;;5055159;28;20107;-67
2022/12/03 12:50:42;;;;;;;44.40;18.23;;;4.80;99.90;;;;;;5055249;28;20090;-67
2022/12/03 12:53:18;;;;;;;36.40;14.80;;;4.70;99.90;;;;;;5055305;28;20096;-67
2022/12/03 12:55:43;;;;;;;45.25;19.00;;;4.80;99.90;;;;;;5055383;28;20126;-67
2022/12/03 12:58:17;;;;;;;44.33;18.60;;;4.80;99.90;;;;;;5055246;28;20456;-67
2022/12/03 13:00:51;;;;;;;37.20;15.88;;;4.80;99.90;;;;;;5054887;28;20040;-67
2022/12/03 13:03:19;;;;;;;41.22;16.05;;;4.70;99.90;;;;;;5054998;28;20017;-67
2022/12/03 13:05:47;;;;;;;36.35;15.95;;;4.70;99.90;;;;;;5055157;28;20013;-67
2022/12/03 13:08:24;;;;;;;40.63;17.80;;;4.70;99.90;;;;;;5054976;28;20028;-67
2022/12/03 13:10:52;;;;;;;38.20;17.27;;;4.70;99.90;;;;;;5053759;28;20130;-67
2022/12/03 13:13:20;;;;;;;41.97;13.93;;;4.70;99.90;;;;;;5054960;28;20017;-67
2022/12/03 13:15:48;;;;;;;41.30;17.88;;;4.60;99.90;;;;;;5054908;28;20021;-67